createdAt,value
2022-10-14T00:02:15.235Z,12.80
2022-10-14T00:05:01.230Z,12.80
2022-10-14T00:07:47.066Z,12.80
2022-10-14T00:10:32.376Z,12.80
2022-10-14T00:13:17.976Z,12.80
2022-10-14T00:16:04.978Z,12.80
2022-10-14T00:18:51.222Z,12.90
2022-10-14T00:21:38.313Z,12.90
2022-10-14T00:24:23.948Z,12.90
2022-10-14T00:27:09.579Z,12.80
2022-10-14T00:29:54.954Z,12.80
2022-10-14T00:32:40.678Z,12.80
2022-10-14T00:35:26.294Z,12.70
2022-10-14T00:38:11.969Z,12.60
2022-10-14T00:40:57.948Z,12.60
2022-10-14T00:44:13.002Z,12.60
2022-10-14T00:46:58.368Z,12.70
2022-10-14T00:49:44.920Z,12.70
2022-10-14T00:52:30.713Z,12.70
2022-10-14T00:55:18.263Z,12.70
2022-10-14T00:58:03.968Z,12.70
2022-10-14T01:00:49.255Z,12.80
2022-10-14T01:03:35.161Z,12.80
2022-10-14T01:06:48.485Z,12.70
2022-10-14T01:09:56.780Z,12.80
2022-10-14T01:12:50.291Z,12.70
2022-10-14T01:16:04.017Z,12.70
2022-10-14T01:19:19.038Z,12.80
2022-10-14T01:22:29.102Z,12.70
2022-10-14T01:25:24.661Z,12.70
2022-10-14T01:28:40.424Z,12.70
2022-10-14T01:31:32.051Z,12.80
2022-10-14T01:34:34.923Z,12.80
2022-10-14T01:37:26.135Z,12.70
2022-10-14T01:40:19.842Z,12.80
2022-10-14T01:43:06.426Z,12.70
2022-10-14T01:45:54.308Z,12.70
2022-10-14T01:48:45.520Z,12.80
2022-10-14T01:51:46.141Z,12.80
2022-10-14T01:54:37.990Z,12.80
2022-10-14T01:57:29.740Z,12.80
2022-10-14T02:00:15.748Z,12.80
2022-10-14T02:03:01.554Z,12.80
2022-10-14T02:05:51.339Z,12.80
2022-10-14T02:08:42.232Z,12.80
2022-10-14T02:11:34.449Z,12.80
2022-10-14T02:14:50.903Z,12.80
2022-10-14T02:17:47.922Z,12.70
2022-10-14T02:20:59.753Z,12.70
2022-10-14T02:23:50.035Z,12.70
2022-10-14T02:26:38.221Z,12.70
2022-10-14T02:29:25.754Z,12.80
2022-10-14T02:32:14.938Z,12.80
2022-10-14T02:35:01.139Z,12.80
2022-10-14T02:37:48.700Z,12.80
2022-10-14T02:40:39.409Z,12.90
2022-10-14T02:43:25.204Z,12.90
2022-10-14T02:46:11.566Z,12.80
2022-10-14T02:48:56.788Z,12.90
2022-10-14T02:51:42.359Z,13.00
2022-10-14T02:54:27.602Z,13.20
2022-10-14T02:57:13.444Z,13.20
2022-10-14T02:59:58.851Z,13.20
2022-10-14T03:02:44.668Z,13.10
2022-10-14T03:05:30.371Z,13.00
2022-10-14T03:08:15.689Z,12.90
2022-10-14T03:11:01.326Z,12.90
2022-10-14T03:13:46.823Z,12.90
2022-10-14T03:16:32.504Z,12.80
2022-10-14T03:19:18.282Z,12.80
2022-10-14T03:22:03.903Z,13.00
2022-10-14T03:24:49.542Z,12.90
2022-10-14T03:27:34.923Z,12.80
2022-10-14T03:30:20.456Z,12.70
2022-10-14T03:33:06.624Z,12.70
2022-10-14T03:35:51.924Z,12.70
2022-10-14T03:38:37.893Z,12.70
2022-10-14T03:41:23.448Z,12.60
2022-10-14T03:44:09.031Z,12.60
2022-10-14T03:46:54.400Z,12.70
2022-10-14T03:49:39.932Z,12.70
2022-10-14T03:52:25.772Z,12.60
2022-10-14T03:55:12.323Z,12.60
2022-10-14T03:57:57.931Z,12.70
2022-10-14T04:00:43.301Z,12.70
2022-10-14T04:03:28.916Z,12.80
2022-10-14T04:06:14.962Z,12.70
2022-10-14T04:09:00.207Z,12.70
2022-10-14T04:11:45.970Z,12.70
2022-10-14T04:14:31.434Z,12.70
2022-10-14T04:17:17.063Z,12.80
2022-10-14T04:20:02.962Z,12.70
2022-10-14T04:22:48.362Z,12.70
2022-10-14T04:25:34.202Z,12.90
2022-10-14T04:28:19.714Z,12.90
2022-10-14T04:31:05.793Z,13.00
2022-10-14T04:33:51.491Z,13.00
2022-10-14T04:36:37.145Z,13.10
2022-10-14T04:39:22.426Z,13.00
2022-10-14T04:42:08.085Z,12.90
2022-10-14T04:44:53.634Z,12.80
2022-10-14T04:47:39.043Z,12.80
2022-10-14T04:50:24.319Z,12.70
2022-10-14T04:53:13.522Z,12.60
2022-10-14T04:55:59.753Z,12.60
2022-10-14T04:58:45.182Z,12.60
2022-10-14T05:01:33.884Z,12.60
2022-10-14T05:04:19.955Z,12.70
2022-10-14T05:07:05.317Z,12.60
2022-10-14T05:09:55.485Z,12.60
2022-10-14T05:12:41.933Z,12.60
2022-10-14T05:15:27.896Z,12.60
2022-10-14T05:18:13.321Z,12.60
2022-10-14T05:20:59.927Z,12.60
2022-10-14T05:23:45.411Z,12.60
2022-10-14T05:26:31.627Z,12.60
2022-10-14T05:29:17.409Z,12.70
2022-10-14T05:32:02.794Z,12.80
2022-10-14T05:34:49.219Z,12.70
2022-10-14T05:37:35.064Z,12.80
2022-10-14T05:40:20.351Z,12.70
2022-10-14T05:43:06.744Z,12.70
2022-10-14T05:45:52.069Z,12.60
2022-10-14T05:48:37.565Z,12.80
2022-10-14T05:51:23.800Z,12.90
2022-10-14T05:54:09.131Z,12.80
2022-10-14T05:56:54.897Z,12.70
2022-10-14T05:59:40.526Z,12.70
2022-10-14T06:02:28.593Z,12.60
2022-10-14T06:05:14.006Z,12.60
2022-10-14T06:07:59.591Z,12.60
2022-10-14T06:10:45.356Z,12.60
2022-10-14T06:13:30.934Z,12.70
2022-10-14T06:16:16.807Z,12.80
2022-10-14T06:19:02.271Z,12.80
2022-10-14T06:21:48.138Z,12.90
2022-10-14T06:24:33.620Z,13.10
2022-10-14T06:27:19.594Z,13.10
2022-10-14T06:30:05.182Z,13.00
2022-10-14T06:32:53.891Z,13.00
2022-10-14T06:35:39.381Z,13.00
2022-10-14T06:38:25.045Z,13.00
2022-10-14T06:41:10.425Z,13.10
2022-10-14T06:43:55.821Z,13.10
2022-10-14T06:46:41.469Z,13.10
2022-10-14T06:49:27.068Z,13.10
2022-10-14T06:52:12.834Z,13.20
2022-10-14T06:54:58.510Z,13.20
2022-10-14T06:57:44.039Z,13.20
2022-10-14T07:00:29.653Z,13.40
2022-10-14T07:03:15.515Z,13.40
2022-10-14T07:06:07.411Z,13.60
2022-10-14T07:08:53.035Z,13.60
2022-10-14T07:11:38.358Z,13.60
2022-10-14T07:14:24.183Z,13.60
2022-10-14T07:17:09.700Z,13.60
2022-10-14T07:19:55.677Z,13.80
2022-10-14T07:22:41.274Z,14.00
2022-10-14T07:25:26.983Z,14.00
2022-10-14T07:28:12.250Z,14.00
2022-10-14T07:31:09.401Z,14.00
2022-10-14T07:33:54.826Z,14.10
2022-10-14T07:36:40.532Z,14.20
2022-10-14T07:39:25.971Z,14.20
2022-10-14T07:42:11.470Z,14.30
2022-10-14T07:44:57.823Z,14.30
2022-10-14T07:47:43.835Z,14.50
2022-10-14T07:50:29.908Z,14.50
2022-10-14T07:53:15.382Z,14.60
2022-10-14T07:56:00.759Z,14.60
2022-10-14T07:58:46.694Z,14.60
2022-10-14T08:01:32.417Z,14.70
2022-10-14T08:04:18.193Z,14.70
2022-10-14T08:07:04.792Z,14.80
2022-10-14T08:09:50.102Z,15.00
2022-10-14T08:12:35.653Z,15.10
2022-10-14T08:15:21.091Z,15.20
2022-10-14T08:18:11.908Z,15.40
2022-10-14T08:20:57.459Z,15.40
2022-10-14T08:23:42.960Z,15.40
2022-10-14T08:26:33.049Z,15.60
2022-10-14T08:29:19.410Z,15.70
2022-10-14T08:32:04.918Z,15.70
2022-10-14T08:34:50.274Z,15.70
2022-10-14T08:37:36.455Z,15.90
2022-10-14T08:40:22.513Z,16.00
2022-10-14T08:43:34.333Z,16.10
2022-10-14T08:46:27.829Z,16.30
2022-10-14T08:49:22.507Z,16.50
2022-10-14T08:52:10.314Z,16.70
2022-10-14T08:55:00.410Z,16.90
2022-10-14T08:57:54.194Z,17.10
2022-10-14T09:00:42.511Z,17.20
2022-10-14T09:03:34.193Z,17.20
2022-10-14T09:06:26.669Z,17.20
2022-10-14T09:09:30.699Z,17.30
2022-10-14T09:12:28.021Z,17.30
2022-10-14T09:15:16.539Z,17.40
2022-10-14T09:18:07.421Z,17.50
2022-10-14T09:20:55.325Z,17.50
2022-10-14T09:23:40.748Z,17.60
2022-10-14T09:26:38.877Z,17.70
2022-10-14T09:29:27.043Z,17.90
2022-10-14T09:32:18.132Z,17.90
2022-10-14T09:35:04.476Z,17.80
2022-10-14T09:37:50.131Z,17.90
2022-10-14T09:40:39.301Z,18.00
2022-10-14T09:43:25.623Z,18.00
2022-10-14T09:46:11.806Z,18.00
2022-10-14T09:48:57.307Z,18.20
2022-10-14T09:51:43.669Z,18.30
2022-10-14T09:54:30.870Z,18.50
2022-10-14T09:57:19.736Z,18.50
2022-10-14T10:00:06.628Z,18.60
2022-10-14T10:02:53.131Z,18.80
2022-10-14T10:05:38.627Z,18.90
2022-10-14T10:08:26.061Z,18.90
2022-10-14T10:11:14.162Z,18.80
2022-10-14T10:13:59.793Z,18.90
2022-10-14T10:16:45.607Z,19.00
2022-10-14T10:19:35.341Z,19.20
2022-10-14T10:22:26.809Z,19.30
2022-10-14T10:25:18.433Z,19.30
2022-10-14T10:28:17.049Z,19.40
2022-10-14T10:31:30.245Z,19.50
2022-10-14T10:34:41.005Z,19.60
2022-10-14T10:37:30.071Z,19.70
2022-10-14T10:40:34.498Z,19.80
2022-10-14T10:43:49.301Z,19.70
2022-10-14T10:46:56.809Z,19.50
2022-10-14T10:50:12.246Z,19.30
2022-10-14T10:53:30.875Z,19.30
2022-10-14T10:56:49.102Z,19.10
2022-10-14T10:59:35.304Z,18.90
2022-10-14T11:02:39.912Z,18.50
2022-10-14T11:05:44.383Z,18.10
2022-10-14T11:09:03.554Z,17.90
2022-10-14T11:12:23.475Z,17.80
2022-10-14T11:15:28.973Z,17.60
2022-10-14T11:18:24.849Z,17.70
2022-10-14T11:21:29.728Z,17.70
2022-10-14T11:25:01.085Z,17.60
2022-10-14T11:27:54.279Z,17.50
2022-10-14T11:30:44.459Z,17.50
2022-10-14T11:33:59.545Z,17.60
2022-10-14T11:37:07.001Z,17.60
2022-10-14T11:40:06.847Z,17.80
2022-10-14T11:43:17.945Z,17.90
2022-10-14T11:46:12.552Z,18.00
2022-10-14T11:49:01.372Z,18.00
2022-10-14T11:51:55.064Z,18.10
2022-10-14T11:54:55.613Z,18.30
2022-10-14T11:57:47.279Z,18.40
2022-10-14T12:00:34.180Z,18.60
2022-10-14T12:03:37.567Z,18.60
2022-10-14T12:06:34.523Z,18.70
2022-10-14T12:09:25.304Z,18.80
2022-10-14T12:12:15.087Z,18.80
2022-10-14T12:15:06.475Z,18.80
2022-10-14T12:18:01.021Z,18.80
2022-10-14T12:21:00.636Z,18.80
2022-10-14T12:23:54.116Z,18.70
2022-10-14T12:26:45.215Z,18.60
2022-10-14T12:29:51.920Z,18.50
2022-10-14T12:33:13.287Z,18.60
2022-10-14T12:36:00.217Z,18.50
2022-10-14T12:39:17.865Z,18.40
2022-10-14T12:42:13.400Z,18.30
2022-10-14T12:45:02.047Z,18.20
2022-10-14T12:47:48.075Z,18.20
2022-10-14T12:50:42.627Z,18.20
2022-10-14T12:53:33.010Z,18.20
2022-10-14T12:56:42.262Z,18.20
2022-10-14T12:59:31.466Z,18.20
2022-10-14T13:02:25.708Z,18.30
2022-10-14T13:05:36.450Z,18.20
2022-10-14T13:08:25.581Z,18.10
2022-10-14T13:11:13.828Z,18.10
2022-10-14T13:14:01.729Z,18.20
2022-10-14T13:16:53.390Z,18.20
2022-10-14T13:19:43.402Z,18.10
2022-10-14T13:22:31.603Z,18.10
2022-10-14T13:25:20.729Z,18.10
2022-10-14T13:28:30.618Z,18.10
2022-10-14T13:31:26.795Z,18.10
2022-10-14T13:34:21.689Z,18.10
2022-10-14T13:37:26.086Z,18.10
2022-10-14T13:40:31.653Z,17.90
2022-10-14T13:43:36.317Z,17.90
2022-10-14T13:46:44.048Z,18.00
2022-10-14T13:49:37.762Z,18.00
2022-10-14T13:52:27.598Z,18.00
2022-10-14T13:55:16.741Z,18.10
2022-10-14T13:58:12.908Z,18.00
2022-10-14T14:01:05.242Z,17.90
2022-10-14T14:03:53.367Z,17.70
2022-10-14T14:07:00.504Z,17.70
2022-10-14T14:09:53.020Z,17.70
2022-10-14T14:12:42.926Z,17.70
2022-10-14T14:15:29.574Z,17.60
2022-10-14T14:18:55.866Z,17.70
2022-10-14T14:21:41.941Z,17.60
2022-10-14T14:24:29.482Z,17.50
2022-10-14T14:27:24.041Z,17.50
2022-10-14T14:30:34.097Z,17.40
2022-10-14T14:33:48.431Z,17.40
2022-10-14T14:36:50.829Z,17.50
2022-10-14T14:39:37.664Z,17.40
2022-10-14T14:42:27.842Z,17.50
2022-10-14T14:45:19.570Z,17.40
2022-10-14T14:48:07.415Z,17.50
2022-10-14T14:50:53.375Z,17.40
2022-10-14T14:53:39.283Z,17.50
2022-10-14T14:57:05.285Z,17.50
2022-10-14T15:00:02.786Z,17.40
2022-10-14T15:02:50.511Z,17.40
2022-10-14T15:05:36.366Z,17.30
2022-10-14T15:08:24.642Z,17.40
2022-10-14T15:11:11.851Z,17.30
2022-10-14T15:14:00.099Z,17.50
2022-10-14T15:16:53.259Z,17.40
2022-10-14T15:19:38.917Z,17.50
2022-10-14T15:22:30.962Z,17.40
2022-10-14T15:25:29.255Z,17.40
2022-10-14T15:28:32.180Z,17.40
2022-10-14T15:31:17.912Z,17.30
2022-10-14T15:34:04.219Z,17.20
2022-10-14T15:36:52.251Z,17.20
2022-10-14T15:39:38.024Z,17.10
2022-10-14T15:42:23.603Z,17.00
2022-10-14T15:45:10.704Z,16.90
2022-10-14T15:48:01.515Z,16.80
2022-10-14T15:50:48.438Z,16.90
2022-10-14T15:53:34.141Z,16.90
2022-10-14T15:56:21.144Z,16.80
2022-10-14T15:59:06.629Z,16.70
2022-10-14T16:01:52.995Z,16.70
2022-10-14T16:04:45.327Z,16.60
2022-10-14T16:07:40.741Z,16.50
2022-10-14T16:10:29.305Z,16.40
2022-10-14T16:13:17.204Z,16.20
2022-10-14T16:16:05.216Z,16.20
2022-10-14T16:18:51.005Z,16.10
2022-10-14T16:21:36.772Z,16.10
2022-10-14T16:24:26.177Z,16.00
2022-10-14T16:27:11.312Z,16.00
2022-10-14T16:29:56.869Z,15.90
2022-10-14T16:32:42.712Z,15.90
2022-10-14T16:35:28.552Z,15.90
2022-10-14T16:38:14.283Z,16.00
2022-10-14T16:41:01.777Z,15.90
2022-10-14T16:43:47.862Z,15.90
2022-10-14T16:46:52.254Z,15.90
2022-10-14T16:49:38.799Z,15.90
2022-10-14T16:52:24.649Z,15.90
2022-10-14T16:55:10.586Z,15.80
2022-10-14T16:57:56.203Z,15.70
2022-10-14T17:00:42.447Z,15.70
2022-10-14T17:03:28.705Z,15.80
2022-10-14T17:06:14.397Z,15.80
2022-10-14T17:08:59.746Z,15.80
2022-10-14T17:11:45.784Z,15.70
2022-10-14T17:14:31.666Z,15.70
2022-10-14T17:17:17.757Z,15.60
2022-10-14T17:20:03.603Z,15.60
2022-10-14T17:22:52.101Z,15.60
2022-10-14T17:25:38.392Z,15.50
2022-10-14T17:28:24.104Z,15.40
2022-10-14T17:31:13.560Z,15.40
2022-10-14T17:33:59.887Z,15.40
2022-10-14T17:36:45.231Z,15.30
2022-10-14T17:39:30.984Z,15.30
2022-10-14T17:42:16.325Z,15.30
2022-10-14T17:45:01.816Z,15.20
2022-10-14T17:47:47.675Z,15.20
2022-10-14T17:50:35.767Z,15.20
2022-10-14T17:53:21.342Z,15.20
2022-10-14T17:56:08.801Z,15.10
2022-10-14T17:58:56.968Z,15.10
2022-10-14T18:02:02.606Z,15.20
2022-10-14T18:04:48.105Z,15.20
2022-10-14T18:07:37.610Z,15.10
2022-10-14T18:10:24.095Z,15.10
2022-10-14T18:13:09.273Z,15.00
2022-10-14T18:15:54.770Z,14.90
2022-10-14T18:18:41.770Z,15.00
2022-10-14T18:21:28.551Z,14.90
2022-10-14T18:24:14.039Z,14.80
2022-10-14T18:26:59.371Z,14.80
2022-10-14T18:29:44.596Z,14.80
2022-10-14T18:32:30.180Z,14.80
2022-10-14T18:35:15.917Z,14.80
2022-10-14T18:38:01.320Z,14.90
2022-10-14T18:40:46.902Z,14.90
2022-10-14T18:43:33.311Z,14.90
2022-10-14T18:46:23.288Z,14.80
2022-10-14T18:49:11.522Z,14.80
2022-10-14T18:51:57.021Z,14.80
2022-10-14T18:54:42.748Z,14.80
2022-10-14T18:57:28.918Z,14.80
2022-10-14T19:00:15.600Z,14.70
2022-10-14T19:03:01.901Z,14.70
2022-10-14T19:05:47.243Z,14.70
2022-10-14T19:08:33.066Z,14.60
2022-10-14T19:11:21.023Z,14.60
2022-10-14T19:14:06.448Z,14.60
2022-10-14T19:16:51.862Z,14.50
2022-10-14T19:19:38.807Z,14.50
2022-10-14T19:22:24.771Z,14.60
2022-10-14T19:25:10.537Z,14.50
2022-10-14T19:27:56.301Z,14.50
2022-10-14T19:30:41.860Z,14.50
2022-10-14T19:33:27.566Z,14.50
2022-10-14T19:36:16.326Z,14.40
2022-10-14T19:39:02.486Z,14.40
2022-10-14T19:41:48.427Z,14.40
2022-10-14T19:44:34.042Z,14.40
2022-10-14T19:47:19.416Z,14.30
2022-10-14T19:50:05.423Z,14.20
2022-10-14T19:52:51.290Z,14.20
2022-10-14T19:55:36.955Z,14.20
2022-10-14T19:58:21.964Z,14.20
2022-10-14T20:01:12.951Z,14.30
2022-10-14T20:04:01.453Z,14.30
2022-10-14T20:06:47.311Z,14.40
2022-10-14T20:09:32.654Z,14.40
2022-10-14T20:12:18.359Z,14.40
2022-10-14T20:15:05.450Z,14.40
2022-10-14T20:17:51.061Z,14.40
2022-10-14T20:20:40.217Z,14.30
2022-10-14T20:23:25.991Z,14.40
2022-10-14T20:26:16.409Z,14.40
2022-10-14T20:29:01.746Z,14.40
2022-10-14T20:31:47.267Z,14.40
2022-10-14T20:34:32.995Z,14.40
2022-10-14T20:37:18.482Z,14.40
2022-10-14T20:40:04.437Z,14.40
2022-10-14T20:42:50.048Z,14.40
2022-10-14T20:45:35.594Z,14.40
2022-10-14T20:48:21.181Z,14.40
2022-10-14T20:51:08.673Z,14.40
2022-10-14T20:54:02.711Z,14.40
2022-10-14T20:56:50.041Z,14.40
2022-10-14T20:59:36.110Z,14.30
2022-10-14T21:02:22.002Z,14.40
2022-10-14T21:05:07.910Z,14.40
2022-10-14T21:07:53.261Z,14.40
2022-10-14T21:10:38.798Z,14.40
2022-10-14T21:13:24.154Z,14.40
2022-10-14T21:16:24.467Z,14.40
2022-10-14T21:19:10.923Z,14.40
2022-10-14T21:21:56.653Z,14.40
2022-10-14T21:24:42.361Z,14.40
2022-10-14T21:27:27.583Z,14.30
2022-10-14T21:30:13.999Z,14.30
2022-10-14T21:32:59.435Z,14.20
2022-10-14T21:35:45.079Z,14.30
2022-10-14T21:38:31.122Z,14.30
2022-10-14T21:41:16.699Z,14.40
2022-10-14T21:44:02.359Z,14.40
2022-10-14T21:46:48.562Z,14.40
2022-10-14T21:49:33.832Z,14.40
2022-10-14T21:52:19.500Z,14.40
2022-10-14T21:55:05.380Z,14.40
2022-10-14T21:57:51.493Z,14.40
2022-10-14T22:00:37.382Z,14.40
2022-10-14T22:03:22.594Z,14.40
2022-10-14T22:06:11.003Z,14.50
2022-10-14T22:08:59.162Z,14.40
2022-10-14T22:11:44.964Z,14.50
2022-10-14T22:14:30.509Z,14.40
2022-10-14T22:17:16.296Z,14.40
2022-10-14T22:20:01.779Z,14.50
2022-10-14T22:22:47.555Z,14.50
2022-10-14T22:25:34.794Z,14.50
2022-10-14T22:28:20.259Z,14.40
2022-10-14T22:31:11.771Z,14.40
2022-10-14T22:33:58.025Z,14.50
2022-10-14T22:36:44.392Z,14.50
2022-10-14T22:39:29.926Z,14.50
2022-10-14T22:42:15.800Z,14.50
2022-10-14T22:45:01.477Z,14.50
2022-10-14T22:47:46.925Z,14.60
2022-10-14T22:50:31.980Z,14.50
2022-10-14T22:53:17.675Z,14.40
2022-10-14T22:56:04.374Z,14.50
2022-10-14T22:58:58.304Z,14.50
2022-10-14T23:01:43.833Z,14.40
2022-10-14T23:04:29.554Z,14.50
2022-10-14T23:07:15.013Z,14.40
2022-10-14T23:10:00.598Z,14.40
2022-10-14T23:12:46.357Z,14.40
2022-10-14T23:15:32.123Z,14.40
2022-10-14T23:18:17.466Z,14.40
2022-10-14T23:21:16.905Z,14.50
2022-10-14T23:24:05.089Z,14.60
2022-10-14T23:26:50.783Z,14.60
2022-10-14T23:29:36.025Z,14.70
2022-10-14T23:32:21.663Z,14.70
2022-10-14T23:35:07.594Z,14.80
2022-10-14T23:37:53.337Z,14.80
2022-10-14T23:40:38.471Z,14.90
2022-10-14T23:43:23.940Z,15.00
2022-10-14T23:46:09.663Z,15.00
2022-10-14T23:49:07.369Z,15.00
2022-10-14T23:52:00.696Z,14.90
2022-10-14T23:54:46.211Z,14.90
2022-10-14T23:57:31.772Z,14.90
